KPLN/PLN METAR and TAF weather

Enter ICAO airport designator
Station Type Date Time Source
KPLN METAR 2020/03/29 11:54 UTC NOAA

KPLN 291154Z AUTO 12007G17KT 6SM BR OVC004 04/04 A2946 RMK AO2 SLP981 60035 70044 T00440039 10044 20039 55008


Station Type Date Time Source
KPLN Decoded METAR 2020/03/29 11:54 UTC NOAA

PELLSTON REGIONAL AIRPORT, MI, United States (KPLN) 45-34N 084-48W 217M
Mar 29, 2020 - 07:54 AM EDT / 2020.03.29 1154 UTC
Wind: from the ESE (120 degrees) at 8 MPH (7 KT) gusting to 20 MPH (17 KT):0
Visibility: 6 mile(s):0
Sky conditions: overcast
Weather: mist
Temperature: 39.9 F (4.4 C)
Dew Point: 39.0 F (3.9 C)
Relative Humidity: 96%
Pressure (altimeter): 29.46 in. Hg (997 hPa)
Pressure tendency: 0.02 inches (0.8 hPa) lower than three hours ago
ob: KPLN 291154Z AUTO 12007G17KT 6SM BR OVC004 04/04 A2946 RMK AO2 SLP981 60035 70044 T00440039 10044 20039 55008
cycle: 12

Station Type Date Time Source
KPLN TAF 2020/03/29 12:39 UTC NOAA

TAF KPLN 291137Z 2912/3012 11014KT P6SM OVC005
FM291600 11007KT P6SM BKN015
FM291800 00000KT 4SM -SHRA OVC011
FM292200 25007KT 4SM -SHRA OVC009
FM292300 24007KT 5SM -SHRA OVC012
FM300200 27006KT 4SM -SHRA OVC007
FM300600 32008KT P6SM OVC005

Example: see airport list